Time;durP1;ratioP1;P1;durP2;ratioP2;P2;SDS_P1;SDS_P2;PMS_P1;PMS_P2;Temp;Humidity;BMP_temperature;BMP_pressure;BME280_temperature;BME280_humidity;BME280_pressure;Samples;Min_cycle;Max_cycle;Signal;HPM_P1;HPM_P2
2023/07/17 00:00:11;;;;;;;4.65;3.72;;;;;;;-141.84;54.27;21436.00;5023430;28;20226;-67
2023/07/17 00:02:39;;;;;;;4.15;3.50;;;;;;;-141.84;54.56;21411.59;4996521;28;20215;-68
2023/07/17 00:05:10;;;;;;;6.43;4.10;;;;;;;-141.84;54.40;21480.72;5003911;28;20245;-67
2023/07/17 00:07:40;;;;;;;6.20;3.95;;;;;;;-141.84;53.79;21436.00;5011592;28;20323;-70
2023/07/17 00:10:09;;;;;;;6.10;3.95;;;;;;;-141.84;54.39;21407.53;5022905;28;20284;-67
2023/07/17 00:12:39;;;;;;;4.75;4.00;;;;;;;-141.84;54.42;21415.66;5015542;28;20280;-69
2023/07/17 00:15:08;;;;;;;5.20;4.10;;;;;;;-141.84;54.02;21391.28;5023000;28;20202;-68
2023/07/17 00:17:38;;;;;;;6.80;4.00;;;;;;;-141.84;54.07;21411.59;5024321;28;20741;-68
2023/07/17 00:20:11;;;;;;;6.55;3.78;;;;;;;-141.84;54.44;21366.88;5023358;28;20862;-69
2023/07/17 00:22:40;;;;;;;3.88;3.28;;;;;;;-141.84;54.31;21393.31;5015423;28;20226;-67
2023/07/17 00:25:09;;;;;;;5.65;3.70;;;;;;;-141.84;54.56;21385.16;5022960;28;20257;-69
2023/07/17 00:27:38;;;;;;;4.45;3.20;;;;;;;-141.84;54.01;21387.19;5021706;28;20271;-69
2023/07/17 00:30:07;;;;;;;5.28;3.60;;;;;;;-141.84;54.16;21379.06;5022218;28;20281;-68
2023/07/17 00:32:36;;;;;;;4.95;3.50;;;;;;;-141.84;54.45;21326.22;5015424;28;20293;-68
2023/07/17 00:35:05;;;;;;;5.88;3.67;;;;;;;-141.84;54.63;21366.88;5022827;28;20264;-69
2023/07/17 00:37:36;;;;;;;4.60;3.85;;;;;;;-141.84;53.69;21375.00;5022471;28;20284;-68
2023/07/17 00:40:07;;;;;;;4.40;3.42;;;;;;;-141.84;53.15;21399.41;5022917;28;20769;-68
2023/07/17 00:42:35;;;;;;;5.05;3.63;;;;;;;-141.84;53.59;21399.41;5014665;28;20591;-68
2023/07/17 00:45:05;;;;;;;5.18;3.30;;;;;;;-141.84;53.34;21379.06;5022706;28;20210;-68
2023/07/17 00:47:34;;;;;;;5.57;3.80;;;;;;;-141.84;53.44;21381.09;5023035;28;20217;-68
2023/07/17 00:50:04;;;;;;;5.43;3.80;;;;;;;-141.84;53.43;21368.91;5022482;28;20236;-69
2023/07/17 00:52:32;;;;;;;5.68;3.95;;;;;;;-141.84;53.41;21399.41;5015009;28;20259;-68
2023/07/17 00:55:04;;;;;;;5.13;3.47;;;;;;;-141.84;53.78;21364.84;5022864;28;20765;-68
2023/07/17 00:57:33;;;;;;;5.97;4.20;;;;;;;-141.84;53.22;21423.81;5021997;28;20709;-68
2023/07/17 01:00:03;;;;;;;7.05;3.88;;;;;;;-141.84;53.06;21407.53;5022881;28;20293;-68
2023/07/17 01:02:32;;;;;;;5.90;4.45;;;;;;;-141.84;51.83;21460.41;5015209;28;20253;-68
2023/07/17 01:05:00;;;;;;;4.10;3.70;;;;;;;-141.84;52.47;21509.19;5022875;28;20673;-69
2023/07/17 01:07:29;;;;;;;6.32;4.20;;;;;;;-141.84;52.97;21476.66;5022146;28;20320;-67
2023/07/17 01:09:57;;;;;;;5.57;3.72;;;;;;;-141.84;52.44;21433.97;5022454;28;20821;-67
2023/07/17 01:12:28;;;;;;;4.93;3.42;;;;;;;-141.84;53.34;21456.34;5019899;28;20317;-69
2023/07/17 01:14:57;;;;;;;5.65;3.50;;;;;;;-141.84;52.75;21419.72;5022501;28;20229;-68
2023/07/17 01:17:26;;;;;;;3.95;3.55;;;;;;;-141.84;52.26;21442.09;5022375;28;20610;-68
2023/07/17 01:19:54;;;;;;;5.90;3.72;;;;;;;-141.84;52.31;21429.91;5022723;28;20238;-69
2023/07/17 01:22:27;;;;;;;5.72;3.35;;;;;;;-141.84;52.83;21458.38;5022291;28;20324;-68
2023/07/17 01:24:57;;;;;;;4.15;3.75;;;;;;;-141.84;52.11;21448.19;5022611;28;20280;-68
2023/07/17 01:27:25;;;;;;;4.40;3.25;;;;;;;-141.84;51.92;21470.56;5021895;28;20799;-67
2023/07/17 01:29:54;;;;;;;4.80;3.90;;;;;;;-141.84;51.99;21482.75;5003879;28;20297;-68
2023/07/17 01:32:22;;;;;;;4.57;3.53;;;;;;;-141.84;51.41;21476.66;5002572;28;20757;-68
2023/07/17 01:34:51;;;;;;;5.40;3.72;;;;;;;-141.84;51.46;21436.00;4995838;28;20227;-69
2023/07/17 01:37:19;;;;;;;4.95;3.70;;;;;;;-141.84;51.41;21403.47;5001654;28;20265;-68
2023/07/17 01:39:48;;;;;;;6.60;3.45;;;;;;;-141.84;52.75;21415.66;5004266;28;20624;-68
2023/07/17 01:42:18;;;;;;;4.63;4.00;;;;;;;-141.84;53.16;21417.69;5006565;28;20305;-68
2023/07/17 01:44:46;;;;;;;5.43;4.07;;;;;;;-141.84;52.40;21482.75;4998506;28;20830;-68
2023/07/17 01:47:15;;;;;;;4.88;3.58;;;;;;;-141.84;53.04;21425.84;5004714;28;20230;-68
2023/07/17 01:49:43;;;;;;;5.45;3.90;;;;;;;-141.84;53.09;21391.28;5009198;28;20230;-68
2023/07/17 01:52:12;;;;;;;3.85;3.42;;;;;;;-141.84;53.31;21452.25;5025634;28;20256;-68
2023/07/17 01:54:41;;;;;;;4.57;3.20;;;;;;;-141.84;53.70;21417.69;5018115;28;20262;-68
2023/07/17 01:57:09;;;;;;;5.07;3.60;;;;;;;-141.84;53.38;21427.88;5025905;28;20204;-68
2023/07/17 01:59:39;;;;;;;3.70;3.40;;;;;;;-141.84;53.73;21419.72;5025883;28;20214;-68
2023/07/17 02:02:08;;;;;;;7.00;3.80;;;;;;;-141.84;53.59;21407.53;5024535;28;20284;-68
2023/07/17 02:04:36;;;;;;;5.25;3.85;;;;;;;-141.84;54.18;21399.41;5017982;28;20229;-68
2023/07/17 02:07:05;;;;;;;5.63;4.22;;;;;;;-141.84;54.40;21383.13;5025412;28;20666;-69
2023/07/17 02:09:34;;;;;;;5.90;3.90;;;;;;;-141.84;54.09;21423.81;5025898;28;20321;-67
2023/07/17 02:12:02;;;;;;;5.60;4.20;;;;;;;-141.84;54.13;21413.63;5025416;28;20692;-68
2023/07/17 02:14:31;;;;;;;5.28;3.85;;;;;;;-141.84;54.19;21438.03;5017721;28;20202;-68
2023/07/17 02:17:00;;;;;;;4.70;3.85;;;;;;;-141.84;53.90;21464.47;5025243;28;20661;-67
2023/07/17 02:19:29;;;;;;;4.53;3.60;;;;;;;-141.84;54.26;21446.16;5025438;28;20258;-69
2023/07/17 02:21:58;;;;;;;4.82;3.58;;;;;;;-141.84;53.42;21474.63;5025718;28;20233;-68
2023/07/17 02:24:26;;;;;;;5.97;3.80;;;;;;;-141.84;54.30;21423.81;5022644;28;20218;-68
2023/07/17 02:26:55;;;;;;;4.32;3.63;;;;;;;-141.84;54.80;21419.72;5026133;28;20198;-68
2023/07/17 02:29:23;;;;;;;4.88;3.85;;;;;;;-141.84;55.66;21442.09;5024689;28;20230;-67
2023/07/17 02:31:52;;;;;;;4.63;3.65;;;;;;;-141.84;54.94;21425.84;5025031;28;20225;-68
2023/07/17 02:34:22;;;;;;;4.60;3.58;;;;;;;-141.84;55.26;21383.13;5016120;28;20233;-68
2023/07/17 02:36:52;;;;;;;5.57;3.90;;;;;;;-141.84;55.83;21395.34;4998655;28;20266;-69
2023/07/17 02:39:22;;;;;;;6.13;4.15;;;;;;;-141.84;55.69;21438.03;5005423;28;20313;-68
2023/07/17 02:41:50;;;;;;;6.82;3.92;;;;;;;-141.84;55.53;21395.34;5006072;28;20214;-68
2023/07/17 02:44:19;;;;;;;6.25;4.05;;;;;;;-141.84;55.70;21346.53;5005105;28;20308;-68
2023/07/17 02:46:48;;;;;;;6.55;4.47;;;;;;;-141.84;55.73;21401.44;4997311;28;20397;-67
2023/07/17 02:49:16;;;;;;;4.35;3.95;;;;;;;-141.84;55.23;21358.75;5005117;28;20317;-68
2023/07/17 02:51:46;;;;;;;5.60;3.90;;;;;;;-141.84;55.81;21372.97;5004403;28;20306;-68
2023/07/17 02:54:14;;;;;;;6.13;4.50;;;;;;;-141.84;55.79;21352.63;5006628;28;20674;-67
2023/07/17 02:56:43;;;;;;;4.60;4.05;;;;;;;-141.84;56.22;21366.88;5006899;28;20253;-68
2023/07/17 02:59:11;;;;;;;6.35;3.72;;;;;;;-141.84;55.97;21346.53;5005804;28;20281;-68
2023/07/17 03:01:40;;;;;;;6.03;3.92;;;;;;;-141.84;56.22;21350.59;5017413;28;20240;-68
2023/07/17 03:04:08;;;;;;;6.80;4.10;;;;;;;-141.84;56.97;21311.97;5024290;28;20234;-68
2023/07/17 03:06:37;;;;;;;6.75;4.03;;;;;;;-141.84;57.12;21316.03;5016683;28;20309;-69
2023/07/17 03:09:07;;;;;;;6.50;4.35;;;;;;;-141.84;57.36;21316.03;5019175;28;20256;-69
2023/07/17 03:11:35;;;;;;;7.43;4.25;;;;;;;-141.84;57.64;21318.06;5024953;28;20210;-69
2023/07/17 03:14:04;;;;;;;5.00;3.88;;;;;;;-141.84;57.79;21257.09;5024116;28;20312;-68
2023/07/17 03:16:32;;;;;;;5.05;3.80;;;;;;;-141.84;57.87;21273.34;5016526;28;20229;-69
2023/07/17 03:19:01;;;;;;;6.85;3.95;;;;;;;-141.84;57.90;21275.38;5024261;28;20605;-68
2023/07/17 03:21:30;;;;;;;6.15;4.10;;;;;;;-141.84;57.46;21226.59;5024456;28;20240;-69
2023/07/17 03:23:58;;;;;;;5.88;4.00;;;;;;;-141.84;57.42;21301.81;5024488;28;20272;-68
2023/07/17 03:26:28;;;;;;;4.72;4.15;;;;;;;-141.84;57.36;21263.19;5021453;28;20292;-68
2023/07/17 03:28:57;;;;;;;5.78;4.10;;;;;;;-141.84;57.49;21263.19;5024411;28;20226;-68
2023/07/17 03:31:25;;;;;;;6.68;4.00;;;;;;;-141.84;57.33;21244.88;5009112;28;20718;-68
2023/07/17 03:33:54;;;;;;;6.20;4.35;;;;;;;-141.84;57.33;21267.25;5023904;28;20230;-68
2023/07/17 03:36:24;;;;;;;5.57;4.13;;;;;;;-141.84;57.76;21234.72;5023708;28;20229;-68
2023/07/17 03:38:52;;;;;;;4.80;4.30;;;;;;;-141.84;58.26;21216.41;5019900;28;20198;-69
2023/07/17 03:41:21;;;;;;;6.03;4.32;;;;;;;-141.84;58.66;21204.22;5023658;28;20225;-68
2023/07/17 03:43:51;;;;;;;6.78;4.25;;;;;;;-141.84;57.79;21214.38;5024114;28;20324;-68
2023/07/17 03:46:19;;;;;;;5.03;4.53;;;;;;;-141.84;56.78;21285.53;5023189;28;20654;-68
2023/07/17 03:48:48;;;;;;;7.05;4.55;;;;;;;-141.84;56.94;21265.22;5015981;28;20245;-68
2023/07/17 03:51:16;;;;;;;5.60;4.07;;;;;;;-141.84;57.52;21226.59;5023730;28;20293;-68
2023/07/17 03:53:45;;;;;;;4.65;4.05;;;;;;;-141.84;57.73;21259.13;5023986;28;20210;-67
2023/07/17 03:56:14;;;;;;;5.72;4.47;;;;;;;-141.84;56.13;21305.88;5023241;28;20234;-68
2023/07/17 03:58:42;;;;;;;5.63;4.68;;;;;;;-141.84;56.92;21295.72;5016319;28;20257;-68
2023/07/17 04:01:12;;;;;;;7.68;4.72;;;;;;;-141.84;57.08;21263.19;5023056;28;20673;-68
2023/07/17 04:03:41;;;;;;;6.28;4.18;;;;;;;-141.84;57.36;21253.00;5021835;28;20252;-68
2023/07/17 04:06:09;;;;;;;5.75;4.50;;;;;;;-141.84;57.09;21259.13;5003313;28;20213;-68
2023/07/17 04:08:38;;;;;;;5.63;4.70;;;;;;;-141.84;55.94;21265.22;5011959;28;20757;-69
2023/07/17 04:11:06;;;;;;;6.45;4.88;;;;;;;-141.84;55.24;21342.47;5010519;28;20721;-68
2023/07/17 04:13:35;;;;;;;5.57;4.30;;;;;;;-141.84;55.54;21328.25;5020024;28;20679;-68
2023/07/17 04:16:04;;;;;;;5.97;4.65;;;;;;;-141.84;54.74;21379.06;5022373;28;20308;-69
2023/07/17 04:18:35;;;;;;;5.80;4.68;;;;;;;-141.84;55.25;21379.06;5016055;28;20226;-68
2023/07/17 04:21:03;;;;;;;5.68;4.68;;;;;;;-141.84;55.22;21358.75;5024031;28;20289;-67
2023/07/17 04:23:32;;;;;;;6.40;4.47;;;;;;;-141.84;55.33;21360.78;5023194;28;20225;-69
2023/07/17 04:26:00;;;;;;;5.32;4.30;;;;;;;-141.84;55.55;21342.47;5022658;28;20320;-68
2023/07/17 04:28:29;;;;;;;6.30;4.45;;;;;;;-141.84;55.45;21344.50;5015718;28;20254;-67
2023/07/17 04:30:57;;;;;;;5.57;4.25;;;;;;;-141.84;55.46;21344.50;5023212;28;20657;-68
2023/07/17 04:33:27;;;;;;;5.45;4.30;;;;;;;-141.84;55.30;21350.59;5022986;28;20225;-67
2023/07/17 04:35:57;;;;;;;5.28;4.38;;;;;;;-141.84;55.30;21338.41;5023312;28;20238;-69
2023/07/17 04:38:25;;;;;;;6.97;4.25;;;;;;;-141.84;55.22;21377.03;5021560;28;20229;-69
2023/07/17 04:40:54;;;;;;;6.70;4.57;;;;;;;-141.84;55.18;21381.09;5020085;28;20233;-69
2023/07/17 04:43:22;;;;;;;5.95;4.82;;;;;;;-141.84;54.84;21462.44;5022911;28;20226;-68
2023/07/17 04:45:51;;;;;;;5.50;4.10;;;;;;;-141.84;54.82;21431.94;5022985;28;20261;-68
2023/07/17 04:48:19;;;;;;;5.28;4.65;;;;;;;-141.84;54.07;21433.97;5022305;28;20248;-68
2023/07/17 04:50:48;;;;;;;6.68;4.45;;;;;;;-141.84;53.42;21497.00;5015503;28;20427;-67
2023/07/17 04:53:18;;;;;;;9.07;5.00;;;;;;;-141.84;52.73;21470.56;5022778;28;20234;-68
2023/07/17 04:55:48;;;;;;;6.35;4.78;;;;;;;-141.84;52.18;21562.06;5003014;28;20381;-68
2023/07/17 04:58:19;;;;;;;8.27;5.03;;;;;;;-141.84;50.81;21665.75;5003206;28;20234;-69
2023/07/17 05:00:47;;;;;;;11.43;5.00;;;;;;;-141.84;47.88;22021.59;4999443;28;20796;-68
2023/07/17 05:03:17;;;;;;;5.72;4.53;;;;;;;-141.84;44.03;22536.13;5022235;28;20241;-69
2023/07/17 05:05:49;;;;;;;6.93;4.88;;;;;;;-141.84;39.20;23134.09;5022111;28;20708;-68
2023/07/17 05:08:19;;;;;;;7.75;4.70;;;;;;;-141.84;36.83;23654.84;5016174;28;20573;-69
2023/07/17 05:10:54;;;;;;;6.70;4.93;;;;;;;-141.84;35.59;23899.00;5014882;28;20945;-68
2023/07/17 05:13:22;;;;;;;7.05;5.30;;;;;;;-141.84;34.80;24029.19;5022557;28;20692;-68
2023/07/17 05:15:51;;;;;;;7.68;4.78;;;;;;;-141.84;34.25;24218.41;5022348;28;20322;-68
2023/07/17 05:18:20;;;;;;;7.78;5.07;;;;;;;-141.84;34.04;24240.78;5022467;28;20422;-67
2023/07/17 05:20:50;;;;;;;7.05;4.53;;;;;;;-141.84;33.43;24352.69;5015494;28;20237;-68
2023/07/17 05:23:20;;;;;;;7.18;4.43;;;;;;;-141.84;33.57;24289.63;5021563;28;20233;-69
2023/07/17 05:25:56;;;;;;;8.70;5.43;;;;;;;-141.84;33.39;24389.34;5022263;28;20332;-68
2023/07/17 05:28:24;;;;;;;7.97;4.63;;;;;;;-141.84;33.61;24336.44;5022036;28;20300;-68
2023/07/17 05:30:54;;;;;;;9.07;4.88;;;;;;;-141.84;32.99;24259.09;5021375;28;20244;-69
2023/07/17 05:33:23;;;;;;;5.47;4.80;;;;;;;-141.84;33.41;24116.69;5022156;28;20230;-69
2023/07/17 05:35:52;;;;;;;6.20;4.85;;;;;;;-141.84;33.43;23978.34;5022361;28;20293;-68
2023/07/17 05:38:22;;;;;;;7.22;4.80;;;;;;;-141.84;35.22;23475.84;5022116;28;20261;-68
2023/07/17 05:40:59;;;;;;;6.20;4.95;;;;;;;-141.84;37.11;23140.19;5015804;28;20239;-68
2023/07/17 05:43:28;;;;;;;6.55;5.03;;;;;;;-141.84;37.91;22914.41;5022156;28;20709;-67
2023/07/17 05:45:56;;;;;;;5.97;4.60;;;;;;;-141.84;39.01;22774.06;5022057;28;20279;-68
2023/07/17 05:48:25;;;;;;;5.55;4.80;;;;;;;-141.84;39.56;22580.84;5020804;28;20714;-67
2023/07/17 05:50:53;;;;;;;8.70;4.75;;;;;;;-141.84;40.58;22527.97;5022547;28;20228;-68
2023/07/17 05:53:24;;;;;;;5.68;4.43;;;;;;;-141.84;40.95;22487.31;5021992;28;20249;-68
2023/07/17 05:55:52;;;;;;;6.35;4.65;;;;;;;-141.84;41.11;22464.94;5020792;28;20222;-69
2023/07/17 05:58:21;;;;;;;10.05;5.25;;;;;;;-141.84;41.06;22420.19;5021800;28;20276;-68
2023/07/17 06:00:50;;;;;;;6.72;4.75;;;;;;;-141.84;41.34;22456.81;5013631;28;20320;-68
2023/07/17 06:03:20;;;;;;;7.10;4.65;;;;;;;-141.84;40.77;22446.63;5019204;28;20708;-68
2023/07/17 06:05:48;;;;;;;8.65;4.93;;;;;;;-141.84;40.81;22477.13;5022421;28;20240;-69
2023/07/17 06:08:17;;;;;;;7.15;4.78;;;;;;;-141.84;40.42;22460.88;5021639;28;20345;-69
2023/07/17 06:10:47;;;;;;;6.05;4.63;;;;;;;-141.84;40.81;22469.00;5014240;28;20292;-70
2023/07/17 06:13:16;;;;;;;6.90;5.18;;;;;;;-141.84;40.83;22505.59;5021836;28;20608;-69
2023/07/17 06:15:45;;;;;;;7.78;4.88;;;;;;;-141.84;40.37;22538.16;5021528;28;20295;-68
2023/07/17 06:18:13;;;;;;;6.55;5.18;;;;;;;-141.84;40.34;22550.34;5021786;28;20290;-69
2023/07/17 06:20:42;;;;;;;6.65;4.60;;;;;;;-141.84;40.37;22564.59;4994969;28;20218;-68
2023/07/17 06:23:11;;;;;;;6.93;4.72;;;;;;;-141.84;40.50;22515.78;5014627;28;20687;-62
2023/07/17 06:25:39;;;;;;;6.47;5.00;;;;;;;-141.84;40.62;22527.97;5008168;28;20238;-61
2023/07/17 06:28:10;;;;;;;9.77;4.95;;;;;;;-141.84;40.84;22566.63;5023877;28;20705;-64
2023/07/17 06:30:38;;;;;;;7.55;4.43;;;;;;;-141.84;40.79;22589.00;5016299;28;20232;-62
2023/07/17 06:33:07;;;;;;;8.77;4.93;;;;;;;-141.84;40.62;22582.91;5024617;28;20237;-63
2023/07/17 06:35:35;;;;;;;8.05;4.93;;;;;;;-141.84;40.16;22605.25;5025000;28;20594;-63
2023/07/17 06:38:04;;;;;;;5.32;4.50;;;;;;;-141.84;40.00;22613.41;5004544;28;20654;-63
2023/07/17 06:40:34;;;;;;;7.65;4.90;;;;;;;-141.84;40.17;22597.13;4997291;28;20314;-67
2023/07/17 06:43:02;;;;;;;9.18;4.47;;;;;;;-141.84;40.09;22625.59;5010625;28;20685;-66
2023/07/17 06:45:32;;;;;;;7.03;4.80;;;;;;;-141.84;39.99;22613.41;5024410;28;20750;-64
2023/07/17 06:48:01;;;;;;;6.15;4.70;;;;;;;-141.84;39.47;22664.25;5024864;28;20296;-62
2023/07/17 06:50:31;;;;;;;6.07;4.78;;;;;;;-141.84;40.24;22682.56;5016977;28;20225;-62
2023/07/17 06:52:59;;;;;;;6.95;4.60;;;;;;;-141.84;39.11;22682.56;5018577;28;20644;-64
2023/07/17 06:55:28;;;;;;;7.35;4.80;;;;;;;-141.84;39.56;22698.81;5021076;28;20276;-63
2023/07/17 06:57:56;;;;;;;7.57;4.75;;;;;;;-141.84;39.19;22725.25;5024648;28;20284;-65
2023/07/17 07:00:25;;;;;;;6.80;4.57;;;;;;;-141.84;39.11;22698.81;5021523;28;20226;-66
2023/07/17 07:02:55;;;;;;;9.40;4.85;;;;;;;-141.84;39.61;22709.00;5021787;28;20225;-65
2023/07/17 07:05:23;;;;;;;8.98;4.75;;;;;;;-141.84;38.88;22753.75;5020341;28;20233;-65
2023/07/17 07:07:52;;;;;;;7.35;5.05;;;;;;;-141.84;38.18;22796.44;5022893;28;20312;-63
2023/07/17 07:10:20;;;;;;;5.82;4.80;;;;;;;-141.84;38.38;22798.47;5023225;28;20259;-62
2023/07/17 07:12:49;;;;;;;6.63;4.57;;;;;;;-141.84;37.98;22814.75;5014403;28;20311;-67
2023/07/17 07:15:17;;;;;;;6.20;4.70;;;;;;;-141.84;37.71;22761.88;5021953;28;20250;-67
2023/07/17 07:17:46;;;;;;;8.10;4.50;;;;;;;-141.84;38.56;22749.66;5023311;28;20206;-66
2023/07/17 07:20:16;;;;;;;7.45;4.25;;;;;;;-141.84;37.77;22810.69;5022454;28;20739;-67
2023/07/17 07:22:44;;;;;;;6.25;4.15;;;;;;;-141.84;38.00;22824.94;5015118;28;20232;-66
2023/07/17 07:25:13;;;;;;;8.48;4.63;;;;;;;-141.84;37.23;22847.28;5021257;28;20240;-66
2023/07/17 07:27:41;;;;;;;8.13;4.20;;;;;;;-141.84;37.29;22847.28;5021744;28;20228;-67
2023/07/17 07:30:10;;;;;;;8.23;4.22;;;;;;;-141.84;36.20;22887.97;5022074;28;20222;-67
2023/07/17 07:32:40;;;;;;;5.32;4.05;;;;;;;-141.84;35.90;22908.31;5014465;28;20256;-67
2023/07/17 07:35:09;;;;;;;6.55;4.13;;;;;;;-141.84;36.15;22887.97;5022035;28;20233;-67
2023/07/17 07:37:41;;;;;;;6.38;4.10;;;;;;;-141.84;35.81;22861.53;5019853;28;20230;-67
2023/07/17 07:40:12;;;;;;;7.38;4.40;;;;;;;-141.84;36.17;22859.50;5021306;28;20320;-64
2023/07/17 07:42:40;;;;;;;6.53;4.63;;;;;;;-141.84;35.98;22863.56;5015708;28;20277;-69
2023/07/17 07:45:09;;;;;;;5.43;4.28;;;;;;;-141.84;35.78;22920.53;5024602;28;20218;-67
2023/07/17 07:47:38;;;;;;;5.90;4.40;;;;;;;-141.84;35.21;22965.28;5021935;28;20297;-66
2023/07/17 07:50:08;;;;;;;6.85;4.47;;;;;;;-141.84;35.17;22908.31;5022117;28;20236;-65
2023/07/17 07:52:36;;;;;;;6.53;4.07;;;;;;;-141.84;35.19;22940.84;5014011;28;20222;-65
2023/07/17 07:55:07;;;;;;;4.82;4.32;;;;;;;-141.84;35.47;22920.53;5019974;28;20292;-65
2023/07/17 07:57:39;;;;;;;5.18;4.43;;;;;;;-141.84;35.77;22885.94;5019630;28;20292;-65
2023/07/17 08:00:09;;;;;;;6.10;4.75;;;;;;;-141.84;35.84;22912.38;5018788;28;20297;-65
2023/07/17 08:02:37;;;;;;;7.82;4.40;;;;;;;-141.84;35.99;22912.38;5013774;28;20288;-63
2023/07/17 08:05:06;;;;;;;7.28;4.38;;;;;;;-141.84;36.11;22883.91;5021845;28;20257;-63
2023/07/17 08:07:35;;;;;;;5.30;4.80;;;;;;;-141.84;36.03;22904.25;5021055;28;20261;-63
2023/07/17 08:10:04;;;;;;;6.88;4.72;;;;;;;-141.84;35.64;22957.13;5020982;28;20229;-66
2023/07/17 08:12:34;;;;;;;5.05;4.15;;;;;;;-141.84;36.03;22983.56;5013521;28;20229;-65
2023/07/17 08:15:02;;;;;;;4.88;4.32;;;;;;;-141.84;35.69;22963.22;5022191;28;20567;-65
2023/07/17 08:17:31;;;;;;;6.93;4.90;;;;;;;-141.84;35.79;22949.00;5021098;28;20290;-66
2023/07/17 08:19:59;;;;;;;8.40;4.50;;;;;;;-141.84;35.55;22936.78;5021110;28;20222;-67
2023/07/17 08:22:28;;;;;;;5.85;4.95;;;;;;;-141.84;35.78;22877.81;5013466;28;20226;-65
2023/07/17 08:24:56;;;;;;;6.35;4.75;;;;;;;-141.84;35.86;22928.66;5020799;28;20230;-65
2023/07/17 08:27:25;;;;;;;7.90;4.70;;;;;;;-141.84;36.42;22959.16;5020674;28;20680;-66
2023/07/17 08:29:55;;;;;;;5.65;4.53;;;;;;;-141.84;35.45;22946.97;5020655;28;20216;-67
2023/07/17 08:32:23;;;;;;;6.88;4.70;;;;;;;-141.84;36.39;22900.19;5019382;28;20221;-65
2023/07/17 08:34:52;;;;;;;7.72;5.15;;;;;;;-141.84;35.66;23042.56;5015946;28;21068;-65
2023/07/17 08:37:20;;;;;;;6.95;5.30;;;;;;;-141.84;35.57;23036.47;5020502;28;20705;-65
2023/07/17 08:39:49;;;;;;;6.50;4.65;;;;;;;-141.84;35.81;23020.19;5020940;28;20225;-66
2023/07/17 08:42:17;;;;;;;7.38;4.53;;;;;;;-141.84;35.30;23030.34;5021148;28;20265;-67
2023/07/17 08:44:47;;;;;;;8.15;4.60;;;;;;;-141.84;35.62;22953.06;5013703;28;20709;-66
2023/07/17 08:47:17;;;;;;;6.28;4.88;;;;;;;-141.84;35.24;22949.00;5019826;28;20234;-66
2023/07/17 08:49:48;;;;;;;7.03;4.72;;;;;;;-141.84;35.11;22993.75;5017968;28;20903;-66
2023/07/17 08:52:18;;;;;;;7.03;4.60;;;;;;;-141.84;35.53;23005.94;5021972;28;20309;-65
2023/07/17 08:54:47;;;;;;;7.80;4.95;;;;;;;-141.84;36.25;22985.59;5011191;28;20784;-66
2023/07/17 08:57:16;;;;;;;5.60;3.85;;;;;;;-141.84;34.81;23010.00;5020226;28;20256;-66
2023/07/17 08:59:45;;;;;;;5.60;4.53;;;;;;;-141.84;34.90;22963.22;5020055;28;20225;-65
2023/07/17 09:02:15;;;;;;;6.18;4.47;;;;;;;-141.84;35.01;22993.75;5020365;28;20321;-65
2023/07/17 09:04:44;;;;;;;6.97;4.57;;;;;;;-141.84;34.29;23046.63;5013921;28;20641;-67
2023/07/17 09:07:12;;;;;;;6.43;4.20;;;;;;;-141.84;34.72;23012.06;5020304;28;20309;-66
2023/07/17 09:09:41;;;;;;;5.97;4.13;;;;;;;-141.84;34.73;23028.31;5021458;28;20297;-67
2023/07/17 09:12:11;;;;;;;6.15;4.53;;;;;;;-141.84;34.45;23083.25;5021662;28;20289;-65
2023/07/17 09:14:40;;;;;;;6.90;3.97;;;;;;;-141.84;34.61;23046.63;5014827;28;20245;-67
2023/07/17 09:17:10;;;;;;;6.82;4.43;;;;;;;-141.84;34.48;22942.91;5022251;28;20284;-66
2023/07/17 09:19:40;;;;;;;5.57;3.67;;;;;;;-141.84;34.42;22987.63;5022301;28;20313;-65
2023/07/17 09:22:11;;;;;;;6.97;4.47;;;;;;;-141.84;34.39;23014.09;5021486;28;20737;-66
2023/07/17 09:24:40;;;;;;;7.30;4.00;;;;;;;-141.84;34.62;22959.16;5010708;28;20724;-67
2023/07/17 09:27:08;;;;;;;5.38;3.65;;;;;;;-141.84;34.37;23026.28;5021536;28;20318;-66
2023/07/17 09:29:42;;;;;;;4.75;3.70;;;;;;;-141.84;34.43;23066.97;5023373;28;20206;-67
2023/07/17 09:32:18;;;;;;;7.20;3.63;;;;;;;-141.84;33.67;23109.69;5017619;28;20739;-65
2023/07/17 09:34:55;;;;;;;5.57;3.92;;;;;;;-141.84;33.90;23048.66;5014951;28;22880;-66
2023/07/17 09:37:31;;;;;;;6.35;3.78;;;;;;;-141.84;33.87;23048.66;5021550;28;20229;-65
2023/07/17 09:40:00;;;;;;;5.18;3.67;;;;;;;-141.84;34.15;23030.34;5021700;28;20225;-66
2023/07/17 09:42:30;;;;;;;6.80;4.13;;;;;;;-141.84;34.10;23046.63;5011755;28;20249;-64
2023/07/17 09:44:59;;;;;;;6.18;3.80;;;;;;;-141.84;34.29;23054.75;5021970;28;20217;-65
2023/07/17 09:47:28;;;;;;;4.03;3.35;;;;;;;-141.84;34.25;23042.56;5023059;28;20261;-67
2023/07/17 09:50:00;;;;;;;6.32;3.58;;;;;;;-141.84;34.87;23003.91;5022418;28;20723;-66
2023/07/17 09:52:30;;;;;;;5.47;3.30;;;;;;;-141.84;33.80;23077.13;5015822;28;20276;-65
2023/07/17 09:55:00;;;;;;;6.18;3.47;;;;;;;-141.84;33.50;23111.72;5017793;28;20225;-65
2023/07/17 09:57:31;;;;;;;5.78;3.47;;;;;;;-141.84;33.26;23087.31;5016817;28;20229;-68
2023/07/17 10:00:04;;;;;;;4.85;2.80;;;;;;;-141.84;32.83;23042.56;5020176;28;20285;-66
2023/07/17 10:02:39;;;;;;;4.55;2.92;;;;;;;-141.84;32.70;23054.75;5017705;28;20334;-67
2023/07/17 10:05:09;;;;;;;4.80;2.72;;;;;;;-141.84;32.74;23048.66;5024912;28;20716;-66
2023/07/17 10:07:38;;;;;;;5.90;3.35;;;;;;;-141.84;33.04;23111.72;5022988;28;20246;-66
2023/07/17 10:10:09;;;;;;;5.93;3.08;;;;;;;-141.84;32.32;23207.31;5024302;28;20218;-65
2023/07/17 10:12:39;;;;;;;6.00;3.10;;;;;;;-141.84;31.69;23219.53;5018916;28;20233;-68
2023/07/17 10:15:10;;;;;;;4.50;3.10;;;;;;;-141.84;31.66;23254.09;5024285;28;20305;-67
2023/07/17 10:17:38;;;;;;;4.18;3.00;;;;;;;-141.84;31.35;23268.34;5025129;28;20682;-65
2023/07/17 10:20:11;;;;;;;7.20;2.90;;;;;;;-141.84;31.93;23248.00;5024409;28;20261;-65
2023/07/17 10:22:46;;;;;;;5.70;3.00;;;;;;;-141.84;31.91;23280.56;5017775;28;20335;-67
2023/07/17 10:25:33;;;;;;;4.13;2.88;;;;;;;-141.84;32.27;23189.00;5024554;28;20225;-67
2023/07/17 10:28:03;;;;;;;6.43;2.92;;;;;;;-141.84;31.90;23276.47;5022488;28;20275;-66
2023/07/17 10:30:33;;;;;;;7.60;3.58;;;;;;;-141.84;32.04;23331.41;5019069;28;20315;-66
2023/07/17 10:33:07;;;;;;;5.25;3.38;;;;;;;-141.84;31.48;23408.72;5025024;28;20214;-66
2023/07/17 10:35:48;;;;;;;5.45;3.58;;;;;;;-141.84;31.42;23486.00;5024287;28;20575;-66
2023/07/17 10:38:17;;;;;;;4.50;3.40;;;;;;;-141.84;31.11;23490.06;5021301;28;20643;-67
2023/07/17 10:40:46;;;;;;;5.90;3.40;;;;;;;-141.84;31.17;23522.63;5017494;28;20299;-67
2023/07/17 10:43:18;;;;;;;7.85;3.55;;;;;;;-141.84;31.62;23486.00;5022505;28;20330;-67
2023/07/17 10:45:48;;;;;;;5.30;3.45;;;;;;;-141.84;31.49;23473.81;5021129;28;20264;-67
2023/07/17 10:48:18;;;;;;;4.43;2.97;;;;;;;-141.84;31.53;23408.72;5022256;28;20264;-66
2023/07/17 10:50:52;;;;;;;4.68;2.72;;;;;;;-141.84;31.71;23382.25;5014444;28;21297;-67
2023/07/17 10:53:22;;;;;;;4.93;3.00;;;;;;;-141.84;31.58;23355.81;5022284;28;20220;-66
2023/07/17 10:55:50;;;;;;;5.47;3.00;;;;;;;-141.84;31.71;23286.66;5021505;28;20313;-67
2023/07/17 10:58:20;;;;;;;6.15;3.20;;;;;;;-141.84;31.95;23213.44;5022813;28;20252;-66
2023/07/17 11:00:49;;;;;;;5.40;3.17;;;;;;;-141.84;32.56;23225.63;5012949;28;20291;-64
2023/07/17 11:03:20;;;;;;;4.47;2.65;;;;;;;-141.84;32.41;23298.84;5022062;28;20216;-65
2023/07/17 11:05:54;;;;;;;4.07;3.20;;;;;;;-141.84;32.24;23337.50;5022974;28;20237;-65
2023/07/17 11:08:25;;;;;;;8.57;3.20;;;;;;;-141.84;32.31;23339.53;5020912;28;20322;-70
2023/07/17 11:10:53;;;;;;;6.75;3.30;;;;;;;-141.84;32.05;23465.66;5017418;28;20341;-67
2023/07/17 11:13:22;;;;;;;5.45;3.40;;;;;;;-141.84;31.30;23547.03;5018853;28;20260;-67
2023/07/17 11:15:50;;;;;;;3.17;2.40;;;;;;;-141.84;31.59;23526.69;5020811;28;20229;-66
2023/07/17 11:18:19;;;;;;;5.85;3.15;;;;;;;-141.84;30.59;23604.00;5020071;28;20665;-66
2023/07/17 11:20:51;;;;;;;5.88;2.80;;;;;;;-141.84;30.67;23754.53;5013968;28;20645;-63
2023/07/17 11:23:20;;;;;;;4.13;2.60;;;;;;;-141.84;30.23;23835.91;5020785;28;20260;-66
2023/07/17 11:25:48;;;;;;;4.85;3.08;;;;;;;-141.84;29.94;23878.66;5001097;28;20317;-66